AirSardinia Virtual Manager

AirSardinia Virtual La prima compagnia sarda di volo simulato




 METAR AND TAF INFORMATION
METAR FOR LIBD
ADDS - METARS form results

(1302 UTC 18 August 2019)
Data provider http://aviationweather.gov/metar/data/
 
METAR text: LIBD 181250Z 07009KT CAVOK 29/14 Q1016
Conditions at: LIBD (BARI/PALESE MACC, IT) observed 1250 UTC 18 August 2019
Temperature: 29.0°C (84°F)
Dewpoint: 14.0°C (57°F) [RH = 40%]
Pressure (altimeter): 30.00 inches Hg (1016.0 mb)
Winds: from the ENE (70 degrees) at 10 MPH (9 knots; 4.6 m/s)
Visibility: 6 or more miles (10+ km)
Ceiling: ceiling and visibility are OK
Clouds: unknown
Weather: no significant weather observed at this time

METAR text: LIBD 181220Z 07009KT 040V100 CAVOK 28/18 Q1016
Conditions at: LIBD (BARI/PALESE MACC, IT) observed 1220 UTC 18 August 2019
Temperature: 28.0°C (82°F)
Dewpoint: 18.0°C (64°F) [RH = 55%]
Pressure (altimeter): 30.00 inches Hg (1016.0 mb)
Winds: from the ENE (70 degrees) at 10 MPH (9 knots; 4.6 m/s)
Visibility: 6 or more miles (10+ km)
Ceiling: ceiling and visibility are OK
Clouds: unknown
Weather: no significant weather observed at this time

Forecast for: LIBD (BARI/PALESE MACC, IT)
Text: TAF LIBD 181100Z 1812/1912 04012KT CAVOK
Forecast period: 1200 to 1700 UTC 18 August 2019
Forecast type: FROM: standard forecast or significant change
Winds: from the NE (40 degrees) at 14 MPH (12 knots; 6.2 m/s)
Visibility: 6 or more miles 10+ km)
Ceiling: unknown
Clouds: missing
Weather: NSW  (no significant weather)
Text: BECMG 1817/1819 VRB04KT
Forecast period: 1700 UTC 18 August 2019 to 0900 UTC 19 August 2019
Forecast type: BECOMING: Conditions expected to become as follows by 1900 UTC 18 August 2019
Winds: variable direction winds at 5 MPH (4 knots; 2.1 m/s)
Visibility: 6 or more miles 10+ km)
Ceiling: unknown
Clouds: missing
Weather: NSW  (no significant weather)
Text: BECMG 1909/1911 04012KT
Forecast period: 0900 to 1200 UTC 19 August 2019
Forecast type: BECOMING: Conditions expected to become as follows by 1100 UTC 19 August 2019
Winds: from the NE (40 degrees) at 14 MPH (12 knots; 6.2 m/s)
Visibility: 6 or more miles 10+ km)
Ceiling: unknown
Clouds: missing
Weather: NSW  (no significant weather)

 AIRPORT MAP

 RUNWAY INFORMATION
Runway 07 Runway length 8005 ft Runway width 148 ft
Runway elevation 177 ft Runway displaced threshold 0 ft Runway heading 69
Runway 25 Runway length 8005 ft Runway width 148 ft
Runway elevation 108 ft Runway displaced threshold 0 ft Runway heading 249
Runway 12 Runway length 5512 ft Runway width 164 ft
Runway elevation 108 ft Runway displaced threshold 0 ft Runway heading 123
Runway 30 Runway length 5512 ft Runway width 164 ft
Runway elevation 108 ft Runway displaced threshold 0 ft Runway heading 303

 AIRPORT FREQUENCIES
Type APP Name APP Frequency 119.5 MHz
Type TWR Name TWR Frequency 118.3 MHz

 AIRPORT NEAR NAVIGATION AIDS
Type VOR-DME Name Bari Frequency 116.4 MHz